sensor_id;sensor_type;location;lat;lon;timestamp;temperature;humidity
66934;DHT22;53846;51.984;5.890;2022-09-20T00:01:52;15.50;61.80
66934;DHT22;53846;51.984;5.890;2022-09-20T00:04:21;15.60;61.80
66934;DHT22;53846;51.984;5.890;2022-09-20T00:06:50;15.60;61.80
66934;DHT22;53846;51.984;5.890;2022-09-20T00:09:20;15.60;61.90
66934;DHT22;53846;51.984;5.890;2022-09-20T00:11:49;15.80;62.10
66934;DHT22;53846;51.984;5.890;2022-09-20T00:14:18;15.50;61.80
66934;DHT22;53846;51.984;5.890;2022-09-20T00:16:50;15.50;61.90
66934;DHT22;53846;51.984;5.890;2022-09-20T00:19:20;15.40;62.00
66934;DHT22;53846;51.984;5.890;2022-09-20T00:21:50;15.40;62.00
66934;DHT22;53846;51.984;5.890;2022-09-20T00:24:19;15.40;61.90
66934;DHT22;53846;51.984;5.890;2022-09-20T00:26:48;15.40;62.00
66934;DHT22;53846;51.984;5.890;2022-09-20T00:29:18;15.40;62.60
66934;DHT22;53846;51.984;5.890;2022-09-20T00:31:49;15.40;62.70
66934;DHT22;53846;51.984;5.890;2022-09-20T00:34:21;15.40;62.60
66934;DHT22;53846;51.984;5.890;2022-09-20T00:37:03;15.40;62.70
66934;DHT22;53846;51.984;5.890;2022-09-20T00:39:32;15.40;62.60
66934;DHT22;53846;51.984;5.890;2022-09-20T00:42:02;15.40;62.90
66934;DHT22;53846;51.984;5.890;2022-09-20T00:44:42;15.40;62.80
66934;DHT22;53846;51.984;5.890;2022-09-20T00:47:20;15.40;63.10
66934;DHT22;53846;51.984;5.890;2022-09-20T00:49:55;15.30;62.90
66934;DHT22;53846;51.984;5.890;2022-09-20T00:52:28;15.40;63.20
66934;DHT22;53846;51.984;5.890;2022-09-20T00:54:59;15.30;63.20
66934;DHT22;53846;51.984;5.890;2022-09-20T00:57:28;15.40;63.70
66934;DHT22;53846;51.984;5.890;2022-09-20T01:00:02;15.50;64.00
66934;DHT22;53846;51.984;5.890;2022-09-20T01:02:36;15.30;63.90
66934;DHT22;53846;51.984;5.890;2022-09-20T01:05:07;15.30;64.90
66934;DHT22;53846;51.984;5.890;2022-09-20T01:07:38;15.20;64.90
66934;DHT22;53846;51.984;5.890;2022-09-20T01:10:07;15.20;65.40
66934;DHT22;53846;51.984;5.890;2022-09-20T01:12:37;15.10;65.20
66934;DHT22;53846;51.984;5.890;2022-09-20T01:15:09;15.20;65.20
66934;DHT22;53846;51.984;5.890;2022-09-20T01:17:44;15.20;65.60
66934;DHT22;53846;51.984;5.890;2022-09-20T01:20:18;15.30;65.20
66934;DHT22;53846;51.984;5.890;2022-09-20T01:23:12;15.30;64.90
66934;DHT22;53846;51.984;5.890;2022-09-20T01:28:53;15.30;64.80
66934;DHT22;53846;51.984;5.890;2022-09-20T01:31:28;15.10;64.50
66934;DHT22;53846;51.984;5.890;2022-09-20T01:34:00;15.40;64.50
66934;DHT22;53846;51.984;5.890;2022-09-20T01:36:33;15.40;64.50
66934;DHT22;53846;51.984;5.890;2022-09-20T01:39:10;15.40;64.50
66934;DHT22;53846;51.984;5.890;2022-09-20T01:41:43;15.40;64.40
66934;DHT22;53846;51.984;5.890;2022-09-20T01:44:23;15.40;64.40
66934;DHT22;53846;51.984;5.890;2022-09-20T01:47:04;15.50;64.40
66934;DHT22;53846;51.984;5.890;2022-09-20T01:49:43;15.40;64.90
66934;DHT22;53846;51.984;5.890;2022-09-20T01:52:33;15.20;64.00
66934;DHT22;53846;51.984;5.890;2022-09-20T01:58:44;15.40;64.00
66934;DHT22;53846;51.984;5.890;2022-09-20T02:04:41;15.50;63.80
66934;DHT22;53846;51.984;5.890;2022-09-20T02:07:29;15.50;63.70
66934;DHT22;53846;51.984;5.890;2022-09-20T02:10:35;15.50;63.70
66934;DHT22;53846;51.984;5.890;2022-09-20T02:13:10;15.50;64.20
66934;DHT22;53846;51.984;5.890;2022-09-20T02:16:09;15.40;63.90
66934;DHT22;53846;51.984;5.890;2022-09-20T02:18:55;15.20;63.90
66934;DHT22;53846;51.984;5.890;2022-09-20T02:21:36;15.50;64.00
66934;DHT22;53846;51.984;5.890;2022-09-20T02:24:15;15.50;63.90
66934;DHT22;53846;51.984;5.890;2022-09-20T02:26:54;15.50;63.90
66934;DHT22;53846;51.984;5.890;2022-09-20T02:29:32;15.80;64.00
66934;DHT22;53846;51.984;5.890;2022-09-20T02:32:27;15.60;63.90
66934;DHT22;53846;51.984;5.890;2022-09-20T02:38:04;15.60;63.80
66934;DHT22;53846;51.984;5.890;2022-09-20T02:40:59;15.50;63.70
66934;DHT22;53846;51.984;5.890;2022-09-20T02:43:37;15.40;63.70
66934;DHT22;53846;51.984;5.890;2022-09-20T02:46:11;15.70;63.80
66934;DHT22;53846;51.984;5.890;2022-09-20T02:48:46;15.60;63.80
66934;DHT22;53846;51.984;5.890;2022-09-20T02:51:26;15.60;63.80
66934;DHT22;53846;51.984;5.890;2022-09-20T02:54:05;15.30;64.00
66934;DHT22;53846;51.984;5.890;2022-09-20T02:56:44;15.50;64.00
66934;DHT22;53846;51.984;5.890;2022-09-20T02:59:24;15.50;64.00
66934;DHT22;53846;51.984;5.890;2022-09-20T03:02:06;15.70;64.20
66934;DHT22;53846;51.984;5.890;2022-09-20T03:04:52;15.50;64.00
66934;DHT22;53846;51.984;5.890;2022-09-20T03:07:33;15.60;64.00
66934;DHT22;53846;51.984;5.890;2022-09-20T03:10:15;15.50;64.00
66934;DHT22;53846;51.984;5.890;2022-09-20T03:12:56;15.60;64.10
66934;DHT22;53846;51.984;5.890;2022-09-20T03:15:32;15.50;64.00
66934;DHT22;53846;51.984;5.890;2022-09-20T03:18:09;15.70;64.10
66934;DHT22;53846;51.984;5.890;2022-09-20T03:20:46;15.50;64.00
66934;DHT22;53846;51.984;5.890;2022-09-20T03:23:36;15.50;64.20
66934;DHT22;53846;51.984;5.890;2022-09-20T03:26:19;15.40;64.20
66934;DHT22;53846;51.984;5.890;2022-09-20T03:28:56;15.50;64.30
66934;DHT22;53846;51.984;5.890;2022-09-20T03:31:37;15.30;64.20
66934;DHT22;53846;51.984;5.890;2022-09-20T03:34:19;15.60;64.30
66934;DHT22;53846;51.984;5.890;2022-09-20T03:37:12;15.10;64.00
66934;DHT22;53846;51.984;5.890;2022-09-20T03:40:01;15.50;64.40
66934;DHT22;53846;51.984;5.890;2022-09-20T03:42:32;15.50;64.40
66934;DHT22;53846;51.984;5.890;2022-09-20T03:45:30;15.40;64.20
66934;DHT22;53846;51.984;5.890;2022-09-20T03:48:20;15.40;64.40
66934;DHT22;53846;51.984;5.890;2022-09-20T03:51:03;15.10;64.20
66934;DHT22;53846;51.984;5.890;2022-09-20T03:54:14;15.30;64.20
66934;DHT22;53846;51.984;5.890;2022-09-20T03:57:04;15.40;64.50
66934;DHT22;53846;51.984;5.890;2022-09-20T03:59:54;15.50;64.50
66934;DHT22;53846;51.984;5.890;2022-09-20T04:05:44;15.30;64.80
66934;DHT22;53846;51.984;5.890;2022-09-20T04:08:24;15.40;64.90
66934;DHT22;53846;51.984;5.890;2022-09-20T04:11:03;15.20;64.80
66934;DHT22;53846;51.984;5.890;2022-09-20T04:13:39;15.10;64.80
66934;DHT22;53846;51.984;5.890;2022-09-20T04:16:22;15.30;65.00
66934;DHT22;53846;51.984;5.890;2022-09-20T04:18:57;15.30;65.00
66934;DHT22;53846;51.984;5.890;2022-09-20T04:21:33;15.10;66.00
66934;DHT22;53846;51.984;5.890;2022-09-20T04:24:10;15.20;65.80
66934;DHT22;53846;51.984;5.890;2022-09-20T04:26:43;15.30;65.30
66934;DHT22;53846;51.984;5.890;2022-09-20T04:29:28;15.40;65.00
66934;DHT22;53846;51.984;5.890;2022-09-20T04:32:06;15.40;64.80
66934;DHT22;53846;51.984;5.890;2022-09-20T04:34:43;15.40;64.80
66934;DHT22;53846;51.984;5.890;2022-09-20T04:37:30;15.20;64.50
66934;DHT22;53846;51.984;5.890;2022-09-20T04:40:12;15.30;64.50
66934;DHT22;53846;51.984;5.890;2022-09-20T04:43:15;15.30;64.60
66934;DHT22;53846;51.984;5.890;2022-09-20T04:49:22;15.00;65.00
66934;DHT22;53846;51.984;5.890;2022-09-20T04:52:26;14.90;64.40
66934;DHT22;53846;51.984;5.890;2022-09-20T05:04:43;15.00;64.70
66934;DHT22;53846;51.984;5.890;2022-09-20T05:10:52;14.90;64.70
66934;DHT22;53846;51.984;5.890;2022-09-20T05:13:39;14.90;64.80
66934;DHT22;53846;51.984;5.890;2022-09-20T05:16:18;14.90;64.70
66934;DHT22;53846;51.984;5.890;2022-09-20T05:19:10;15.10;65.00
66934;DHT22;53846;51.984;5.890;2022-09-20T05:22:06;15.10;65.20
66934;DHT22;53846;51.984;5.890;2022-09-20T05:25:06;15.00;65.10
66934;DHT22;53846;51.984;5.890;2022-09-20T05:27:42;15.00;65.40
66934;DHT22;53846;51.984;5.890;2022-09-20T05:30:22;14.80;65.20
66934;DHT22;53846;51.984;5.890;2022-09-20T05:33:00;14.90;65.30
66934;DHT22;53846;51.984;5.890;2022-09-20T05:35:38;15.10;65.60
66934;DHT22;53846;51.984;5.890;2022-09-20T05:38:25;15.00;65.70
66934;DHT22;53846;51.984;5.890;2022-09-20T05:41:05;15.00;65.90
66934;DHT22;53846;51.984;5.890;2022-09-20T05:43:46;14.90;65.70
66934;DHT22;53846;51.984;5.890;2022-09-20T05:46:31;15.00;66.20
66934;DHT22;53846;51.984;5.890;2022-09-20T05:49:10;15.20;66.50
66934;DHT22;53846;51.984;5.890;2022-09-20T05:51:51;15.20;66.40
66934;DHT22;53846;51.984;5.890;2022-09-20T05:54:42;14.90;66.20
66934;DHT22;53846;51.984;5.890;2022-09-20T05:57:22;14.90;66.20
66934;DHT22;53846;51.984;5.890;2022-09-20T06:00:02;15.20;66.20
66934;DHT22;53846;51.984;5.890;2022-09-20T06:02:45;15.10;66.00
66934;DHT22;53846;51.984;5.890;2022-09-20T06:05:28;15.10;66.00
66934;DHT22;53846;51.984;5.890;2022-09-20T06:11:21;15.20;66.30
66934;DHT22;53846;51.984;5.890;2022-09-20T06:14:02;15.10;66.20
66934;DHT22;53846;51.984;5.890;2022-09-20T06:16:42;15.20;66.10
66934;DHT22;53846;51.984;5.890;2022-09-20T06:19:20;15.30;66.80
66934;DHT22;53846;51.984;5.890;2022-09-20T06:21:52;15.40;68.40
66934;DHT22;53846;51.984;5.890;2022-09-20T06:24:30;15.20;69.20
66934;DHT22;53846;51.984;5.890;2022-09-20T06:27:07;15.40;69.80
66934;DHT22;53846;51.984;5.890;2022-09-20T06:29:40;15.30;70.00
66934;DHT22;53846;51.984;5.890;2022-09-20T06:32:15;15.20;70.30
66934;DHT22;53846;51.984;5.890;2022-09-20T06:34:46;15.40;70.30
66934;DHT22;53846;51.984;5.890;2022-09-20T06:37:32;15.50;70.30
66934;DHT22;53846;51.984;5.890;2022-09-20T06:40:28;15.70;70.60
66934;DHT22;53846;51.984;5.890;2022-09-20T06:43:14;15.60;70.10
66934;DHT22;53846;51.984;5.890;2022-09-20T06:45:44;15.80;69.90
66934;DHT22;53846;51.984;5.890;2022-09-20T06:48:13;15.60;69.50
66934;DHT22;53846;51.984;5.890;2022-09-20T06:50:44;15.80;69.40
66934;DHT22;53846;51.984;5.890;2022-09-20T06:53:15;15.70;69.10
66934;DHT22;53846;51.984;5.890;2022-09-20T06:55:46;15.60;68.80
66934;DHT22;53846;51.984;5.890;2022-09-20T06:58:19;15.90;68.80
66934;DHT22;53846;51.984;5.890;2022-09-20T07:00:48;15.90;68.60
66934;DHT22;53846;51.984;5.890;2022-09-20T07:03:17;16.10;68.60
66934;DHT22;53846;51.984;5.890;2022-09-20T07:05:47;16.10;68.40
66934;DHT22;53846;51.984;5.890;2022-09-20T07:08:16;16.20;68.30
66934;DHT22;53846;51.984;5.890;2022-09-20T07:10:45;16.30;68.20
66934;DHT22;53846;51.984;5.890;2022-09-20T07:13:14;16.30;67.80
66934;DHT22;53846;51.984;5.890;2022-09-20T07:15:48;16.30;67.30
66934;DHT22;53846;51.984;5.890;2022-09-20T07:18:17;16.30;67.30
66934;DHT22;53846;51.984;5.890;2022-09-20T07:20:46;16.10;67.40
66934;DHT22;53846;51.984;5.890;2022-09-20T07:23:16;16.20;67.20
66934;DHT22;53846;51.984;5.890;2022-09-20T07:25:45;16.20;67.30
66934;DHT22;53846;51.984;5.890;2022-09-20T07:28:14;16.20;67.20
66934;DHT22;53846;51.984;5.890;2022-09-20T07:30:45;16.20;67.20
66934;DHT22;53846;51.984;5.890;2022-09-20T07:33:17;16.20;67.10
66934;DHT22;53846;51.984;5.890;2022-09-20T07:35:47;16.20;67.20
66934;DHT22;53846;51.984;5.890;2022-09-20T07:38:18;16.40;67.30
66934;DHT22;53846;51.984;5.890;2022-09-20T07:40:53;16.30;67.20
66934;DHT22;53846;51.984;5.890;2022-09-20T07:43:23;16.30;67.30
66934;DHT22;53846;51.984;5.890;2022-09-20T07:45:53;16.40;67.30
66934;DHT22;53846;51.984;5.890;2022-09-20T07:48:29;16.40;67.20
66934;DHT22;53846;51.984;5.890;2022-09-20T07:51:02;16.40;67.40
66934;DHT22;53846;51.984;5.890;2022-09-20T07:53:31;16.70;67.60
66934;DHT22;53846;51.984;5.890;2022-09-20T07:56:02;16.60;67.60
66934;DHT22;53846;51.984;5.890;2022-09-20T07:58:33;16.60;67.80
66934;DHT22;53846;51.984;5.890;2022-09-20T08:01:05;16.70;68.00
66934;DHT22;53846;51.984;5.890;2022-09-20T08:03:37;16.90;68.10
66934;DHT22;53846;51.984;5.890;2022-09-20T08:06:09;17.20;68.50
66934;DHT22;53846;51.984;5.890;2022-09-20T08:08:40;17.40;68.60
66934;DHT22;53846;51.984;5.890;2022-09-20T08:11:10;17.70;68.20
66934;DHT22;53846;51.984;5.890;2022-09-20T08:13:41;18.10;68.00
66934;DHT22;53846;51.984;5.890;2022-09-20T08:16:11;18.50;68.10
66934;DHT22;53846;51.984;5.890;2022-09-20T08:18:48;19.00;67.30
66934;DHT22;53846;51.984;5.890;2022-09-20T08:21:17;19.50;66.70
66934;DHT22;53846;51.984;5.890;2022-09-20T08:23:47;20.00;65.40
66934;DHT22;53846;51.984;5.890;2022-09-20T08:26:18;20.40;65.10
66934;DHT22;53846;51.984;5.890;2022-09-20T08:28:51;20.60;64.30
66934;DHT22;53846;51.984;5.890;2022-09-20T08:31:22;20.80;61.10
66934;DHT22;53846;51.984;5.890;2022-09-20T08:33:54;21.30;61.20
66934;DHT22;53846;51.984;5.890;2022-09-20T08:36:24;21.80;60.40
66934;DHT22;53846;51.984;5.890;2022-09-20T08:38:54;22.00;58.70
66934;DHT22;53846;51.984;5.890;2022-09-20T08:41:27;22.10;57.80
66934;DHT22;53846;51.984;5.890;2022-09-20T08:44:01;22.30;57.50
66934;DHT22;53846;51.984;5.890;2022-09-20T08:46:32;22.30;55.10
66934;DHT22;53846;51.984;5.890;2022-09-20T08:49:06;22.50;54.00
66934;DHT22;53846;51.984;5.890;2022-09-20T08:51:38;22.70;52.90
66934;DHT22;53846;51.984;5.890;2022-09-20T08:54:10;22.80;53.10
66934;DHT22;53846;51.984;5.890;2022-09-20T08:56:41;22.50;51.30
66934;DHT22;53846;51.984;5.890;2022-09-20T08:59:15;22.40;52.50
66934;DHT22;53846;51.984;5.890;2022-09-20T09:01:46;22.10;53.20
66934;DHT22;53846;51.984;5.890;2022-09-20T09:04:19;21.90;53.60
66934;DHT22;53846;51.984;5.890;2022-09-20T09:06:50;22.00;53.80
66934;DHT22;53846;51.984;5.890;2022-09-20T09:09:21;21.70;53.30
66934;DHT22;53846;51.984;5.890;2022-09-20T09:11:52;21.50;53.20
66934;DHT22;53846;51.984;5.890;2022-09-20T09:14:25;21.70;53.60
66934;DHT22;53846;51.984;5.890;2022-09-20T09:17:08;21.30;54.00
66934;DHT22;53846;51.984;5.890;2022-09-20T09:19:48;21.00;53.00
66934;DHT22;53846;51.984;5.890;2022-09-20T09:22:23;21.10;53.70
66934;DHT22;53846;51.984;5.890;2022-09-20T09:25:20;20.60;53.20
66934;DHT22;53846;51.984;5.890;2022-09-20T09:27:54;20.60;53.60
66934;DHT22;53846;51.984;5.890;2022-09-20T09:30:26;20.40;53.90
66934;DHT22;53846;51.984;5.890;2022-09-20T09:33:15;20.50;54.30
66934;DHT22;53846;51.984;5.890;2022-09-20T09:35:55;20.30;54.80
66934;DHT22;53846;51.984;5.890;2022-09-20T09:38:26;20.00;55.00
66934;DHT22;53846;51.984;5.890;2022-09-20T09:40:57;19.90;55.50
66934;DHT22;53846;51.984;5.890;2022-09-20T09:43:27;19.80;55.80
66934;DHT22;53846;51.984;5.890;2022-09-20T09:46:17;19.80;56.00
66934;DHT22;53846;51.984;5.890;2022-09-20T09:48:47;19.80;56.20
66934;DHT22;53846;51.984;5.890;2022-09-20T09:51:35;19.70;55.40
66934;DHT22;53846;51.984;5.890;2022-09-20T09:54:13;19.80;54.90
66934;DHT22;53846;51.984;5.890;2022-09-20T09:56:50;19.90;55.20
66934;DHT22;53846;51.984;5.890;2022-09-20T09:59:36;19.80;55.20
66934;DHT22;53846;51.984;5.890;2022-09-20T10:02:22;19.80;55.30
66934;DHT22;53846;51.984;5.890;2022-09-20T10:05:00;19.70;55.30
66934;DHT22;53846;51.984;5.890;2022-09-20T10:07:39;20.00;55.40
66934;DHT22;53846;51.984;5.890;2022-09-20T10:10:20;20.10;55.30
66934;DHT22;53846;51.984;5.890;2022-09-20T10:13:01;20.70;54.80
66934;DHT22;53846;51.984;5.890;2022-09-20T10:15:38;21.00;52.90
66934;DHT22;53846;51.984;5.890;2022-09-20T10:18:18;21.60;52.00
66934;DHT22;53846;51.984;5.890;2022-09-20T10:20:58;22.10;51.20
66934;DHT22;53846;51.984;5.890;2022-09-20T10:23:59;22.60;50.10
66934;DHT22;53846;51.984;5.890;2022-09-20T10:26:45;22.90;50.20
66934;DHT22;53846;51.984;5.890;2022-09-20T10:29:29;23.60;48.70
66934;DHT22;53846;51.984;5.890;2022-09-20T10:32:12;23.40;47.50
66934;DHT22;53846;51.984;5.890;2022-09-20T10:35:12;23.90;47.80
66934;DHT22;53846;51.984;5.890;2022-09-20T10:37:53;24.00;46.80
66934;DHT22;53846;51.984;5.890;2022-09-20T10:40:34;23.90;47.20
66934;DHT22;53846;51.984;5.890;2022-09-20T10:43:31;24.10;45.10
66934;DHT22;53846;51.984;5.890;2022-09-20T10:46:12;24.00;46.30
66934;DHT22;53846;51.984;5.890;2022-09-20T10:48:49;23.90;45.50
66934;DHT22;53846;51.984;5.890;2022-09-20T10:51:25;23.90;43.90
66934;DHT22;53846;51.984;5.890;2022-09-20T10:54:02;23.80;45.10
66934;DHT22;53846;51.984;5.890;2022-09-20T10:56:38;23.60;44.10
66934;DHT22;53846;51.984;5.890;2022-09-20T10:59:29;23.30;43.50
66934;DHT22;53846;51.984;5.890;2022-09-20T11:02:19;23.30;44.30
66934;DHT22;53846;51.984;5.890;2022-09-20T11:05:25;22.80;45.20
66934;DHT22;53846;51.984;5.890;2022-09-20T11:08:08;22.80;44.70
66934;DHT22;53846;51.984;5.890;2022-09-20T11:10:43;22.70;45.00
66934;DHT22;53846;51.984;5.890;2022-09-20T11:13:21;22.50;45.80
66934;DHT22;53846;51.984;5.890;2022-09-20T11:15:57;22.40;46.10
66934;DHT22;53846;51.984;5.890;2022-09-20T11:18:34;22.30;46.50
66934;DHT22;53846;51.984;5.890;2022-09-20T11:21:09;22.40;47.00
66934;DHT22;53846;51.984;5.890;2022-09-20T11:23:46;22.30;47.30
66934;DHT22;53846;51.984;5.890;2022-09-20T11:26:22;22.10;46.50
66934;DHT22;53846;51.984;5.890;2022-09-20T11:29:00;22.30;47.10
66934;DHT22;53846;51.984;5.890;2022-09-20T11:31:35;22.40;46.90
66934;DHT22;53846;51.984;5.890;2022-09-20T11:34:09;21.80;46.60
66934;DHT22;53846;51.984;5.890;2022-09-20T11:36:51;21.90;46.30
66934;DHT22;53846;51.984;5.890;2022-09-20T11:39:28;21.70;47.20
66934;DHT22;53846;51.984;5.890;2022-09-20T11:42:01;21.70;47.50
66934;DHT22;53846;51.984;5.890;2022-09-20T11:44:38;21.60;48.10
66934;DHT22;53846;51.984;5.890;2022-09-20T11:47:16;21.50;47.20
66934;DHT22;53846;51.984;5.890;2022-09-20T11:49:59;21.70;48.20
66934;DHT22;53846;51.984;5.890;2022-09-20T11:52:47;21.60;48.30
66934;DHT22;53846;51.984;5.890;2022-09-20T11:55:39;21.60;48.20
66934;DHT22;53846;51.984;5.890;2022-09-20T11:58:12;21.70;47.70
66934;DHT22;53846;51.984;5.890;2022-09-20T12:00:49;22.00;48.30
66934;DHT22;53846;51.984;5.890;2022-09-20T12:03:30;22.50;47.90
66934;DHT22;53846;51.984;5.890;2022-09-20T12:06:04;23.10;47.80
66934;DHT22;53846;51.984;5.890;2022-09-20T12:08:37;23.70;46.70
66934;DHT22;53846;51.984;5.890;2022-09-20T12:11:08;24.20;43.90
66934;DHT22;53846;51.984;5.890;2022-09-20T12:13:39;24.40;42.30
66934;DHT22;53846;51.984;5.890;2022-09-20T12:16:15;24.30;41.80
66934;DHT22;53846;51.984;5.890;2022-09-20T12:19:00;24.30;41.90
66934;DHT22;53846;51.984;5.890;2022-09-20T12:21:30;24.10;43.10
66934;DHT22;53846;51.984;5.890;2022-09-20T12:24:20;23.80;42.30
66934;DHT22;53846;51.984;5.890;2022-09-20T12:26:52;23.80;43.30
66934;DHT22;53846;51.984;5.890;2022-09-20T12:32:54;23.70;41.90
66934;DHT22;53846;51.984;5.890;2022-09-20T12:39:02;23.20;42.20
66934;DHT22;53846;51.984;5.890;2022-09-20T12:41:49;22.90;43.30
66934;DHT22;53846;51.984;5.890;2022-09-20T12:44:24;22.70;44.10
66934;DHT22;53846;51.984;5.890;2022-09-20T12:46:56;22.50;44.80
66934;DHT22;53846;51.984;5.890;2022-09-20T12:49:48;22.50;45.20
66934;DHT22;53846;51.984;5.890;2022-09-20T12:52:36;22.00;45.30
66934;DHT22;53846;51.984;5.890;2022-09-20T12:55:37;22.00;45.50
66934;DHT22;53846;51.984;5.890;2022-09-20T12:58:30;21.80;45.10
66934;DHT22;53846;51.984;5.890;2022-09-20T13:01:27;21.70;46.20
66934;DHT22;53846;51.984;5.890;2022-09-20T13:10:30;21.70;45.20
66934;DHT22;53846;51.984;5.890;2022-09-20T13:13:04;21.70;45.80
66934;DHT22;53846;51.984;5.890;2022-09-20T13:15:38;22.00;45.20
66934;DHT22;53846;51.984;5.890;2022-09-20T13:18:11;22.20;44.00
66934;DHT22;53846;51.984;5.890;2022-09-20T13:20:42;22.50;44.00
66934;DHT22;53846;51.984;5.890;2022-09-20T13:23:19;22.30;43.90
66934;DHT22;53846;51.984;5.890;2022-09-20T13:25:54;22.50;43.50
66934;DHT22;53846;51.984;5.890;2022-09-20T13:28:37;22.40;44.10
66934;DHT22;53846;51.984;5.890;2022-09-20T13:31:22;22.20;45.00
66934;DHT22;53846;51.984;5.890;2022-09-20T13:33:52;21.90;45.40
66934;DHT22;53846;51.984;5.890;2022-09-20T13:36:27;21.70;45.90
66934;DHT22;53846;51.984;5.890;2022-09-20T13:38:57;21.60;46.60
66934;DHT22;53846;51.984;5.890;2022-09-20T13:41:30;21.40;47.00
66934;DHT22;53846;51.984;5.890;2022-09-20T13:44:01;21.30;47.50
66934;DHT22;53846;51.984;5.890;2022-09-20T13:46:31;21.10;47.50
66934;DHT22;53846;51.984;5.890;2022-09-20T13:49:13;21.10;48.60
66934;DHT22;53846;51.984;5.890;2022-09-20T13:51:46;21.00;48.20
66934;DHT22;53846;51.984;5.890;2022-09-20T13:54:24;20.90;48.30
66934;DHT22;53846;51.984;5.890;2022-09-20T13:57:00;20.90;48.60
66934;DHT22;53846;51.984;5.890;2022-09-20T13:59:32;20.90;48.70
66934;DHT22;53846;51.984;5.890;2022-09-20T14:02:03;21.00;48.80
66934;DHT22;53846;51.984;5.890;2022-09-20T14:04:33;20.90;48.80
66934;DHT22;53846;51.984;5.890;2022-09-20T14:07:05;20.90;48.90
66934;DHT22;53846;51.984;5.890;2022-09-20T14:09:37;21.10;49.00
66934;DHT22;53846;51.984;5.890;2022-09-20T14:12:10;20.90;48.60
66934;DHT22;53846;51.984;5.890;2022-09-20T14:14:41;20.90;48.80
66934;DHT22;53846;51.984;5.890;2022-09-20T14:17:14;21.00;49.00
66934;DHT22;53846;51.984;5.890;2022-09-20T14:19:47;21.10;49.20
66934;DHT22;53846;51.984;5.890;2022-09-20T14:22:21;21.30;49.10
66934;DHT22;53846;51.984;5.890;2022-09-20T14:24:59;21.40;49.10
66934;DHT22;53846;51.984;5.890;2022-09-20T14:27:31;21.70;49.10
66934;DHT22;53846;51.984;5.890;2022-09-20T14:30:01;21.50;48.30
66934;DHT22;53846;51.984;5.890;2022-09-20T14:32:36;21.80;48.50
66934;DHT22;53846;51.984;5.890;2022-09-20T14:35:14;22.40;48.80
66934;DHT22;53846;51.984;5.890;2022-09-20T14:37:45;22.60;46.10
66934;DHT22;53846;51.984;5.890;2022-09-20T14:40:19;22.80;46.30
66934;DHT22;53846;51.984;5.890;2022-09-20T14:42:54;23.20;46.10
66934;DHT22;53846;51.984;5.890;2022-09-20T14:45:28;23.30;45.50
66934;DHT22;53846;51.984;5.890;2022-09-20T14:48:00;23.40;45.30
66934;DHT22;53846;51.984;5.890;2022-09-20T14:50:32;23.50;44.70
66934;DHT22;53846;51.984;5.890;2022-09-20T14:53:21;23.30;44.60
66934;DHT22;53846;51.984;5.890;2022-09-20T14:55:57;23.50;43.10
66934;DHT22;53846;51.984;5.890;2022-09-20T14:58:29;23.20;43.30
66934;DHT22;53846;51.984;5.890;2022-09-20T15:01:01;23.10;43.70
66934;DHT22;53846;51.984;5.890;2022-09-20T15:03:32;23.40;43.70
66934;DHT22;53846;51.984;5.890;2022-09-20T15:06:02;23.10;43.80
66934;DHT22;53846;51.984;5.890;2022-09-20T15:08:33;23.00;44.10
66934;DHT22;53846;51.984;5.890;2022-09-20T15:11:02;23.10;44.40
66934;DHT22;53846;51.984;5.890;2022-09-20T15:13:34;22.60;44.40
66934;DHT22;53846;51.984;5.890;2022-09-20T15:16:04;22.80;44.50
66934;DHT22;53846;51.984;5.890;2022-09-20T15:18:38;22.50;44.70
66934;DHT22;53846;51.984;5.890;2022-09-20T15:21:09;22.50;45.00
66934;DHT22;53846;51.984;5.890;2022-09-20T15:23:38;22.40;45.10
66934;DHT22;53846;51.984;5.890;2022-09-20T15:26:09;22.50;45.20
66934;DHT22;53846;51.984;5.890;2022-09-20T15:28:42;22.10;44.80
66934;DHT22;53846;51.984;5.890;2022-09-20T15:31:11;22.00;44.80
66934;DHT22;53846;51.984;5.890;2022-09-20T15:33:42;22.00;45.00
66934;DHT22;53846;51.984;5.890;2022-09-20T15:36:11;21.70;45.10
66934;DHT22;53846;51.984;5.890;2022-09-20T15:38:40;21.60;45.30
66934;DHT22;53846;51.984;5.890;2022-09-20T15:41:10;21.50;45.40
66934;DHT22;53846;51.984;5.890;2022-09-20T15:43:42;21.60;45.80
66934;DHT22;53846;51.984;5.890;2022-09-20T15:46:19;21.70;45.90
66934;DHT22;53846;51.984;5.890;2022-09-20T15:48:49;21.20;45.30
66934;DHT22;53846;51.984;5.890;2022-09-20T15:51:18;21.50;45.80
66934;DHT22;53846;51.984;5.890;2022-09-20T15:53:54;21.20;45.30
66934;DHT22;53846;51.984;5.890;2022-09-20T15:56:26;21.20;45.50
66934;DHT22;53846;51.984;5.890;2022-09-20T15:58:59;21.40;45.60
66934;DHT22;53846;51.984;5.890;2022-09-20T16:01:30;21.50;45.60
66934;DHT22;53846;51.984;5.890;2022-09-20T16:04:04;21.80;46.20
66934;DHT22;53846;51.984;5.890;2022-09-20T16:06:35;21.60;45.60
66934;DHT22;53846;51.984;5.890;2022-09-20T16:09:05;22.10;45.40
66934;DHT22;53846;51.984;5.890;2022-09-20T16:11:35;22.30;45.70
66934;DHT22;53846;51.984;5.890;2022-09-20T16:14:07;22.40;45.70
66934;DHT22;53846;51.984;5.890;2022-09-20T16:16:36;22.70;44.60
66934;DHT22;53846;51.984;5.890;2022-09-20T16:19:05;22.80;43.40
66934;DHT22;53846;51.984;5.890;2022-09-20T16:21:47;23.30;44.40
66934;DHT22;53846;51.984;5.890;2022-09-20T16:24:21;23.10;42.50
66934;DHT22;53846;51.984;5.890;2022-09-20T16:26:51;23.30;42.50
66934;DHT22;53846;51.984;5.890;2022-09-20T16:29:23;23.60;42.20
66934;DHT22;53846;51.984;5.890;2022-09-20T16:31:55;23.70;42.00
66934;DHT22;53846;51.984;5.890;2022-09-20T16:34:27;23.90;42.00
66934;DHT22;53846;51.984;5.890;2022-09-20T16:36:58;24.10;41.70
66934;DHT22;53846;51.984;5.890;2022-09-20T16:39:28;24.20;41.30
66934;DHT22;53846;51.984;5.890;2022-09-20T16:42:00;24.50;40.90
66934;DHT22;53846;51.984;5.890;2022-09-20T16:44:33;24.50;40.90
66934;DHT22;53846;51.984;5.890;2022-09-20T16:47:04;24.40;40.80
66934;DHT22;53846;51.984;5.890;2022-09-20T16:49:34;24.60;40.60
66934;DHT22;53846;51.984;5.890;2022-09-20T16:52:04;24.50;40.20
66934;DHT22;53846;51.984;5.890;2022-09-20T16:54:33;24.50;40.30
66934;DHT22;53846;51.984;5.890;2022-09-20T16:57:03;24.30;40.40
66934;DHT22;53846;51.984;5.890;2022-09-20T16:59:35;24.40;40.60
66934;DHT22;53846;51.984;5.890;2022-09-20T17:02:05;24.00;40.60
66934;DHT22;53846;51.984;5.890;2022-09-20T17:04:35;23.80;40.80
66934;DHT22;53846;51.984;5.890;2022-09-20T17:07:04;23.70;41.80
66934;DHT22;53846;51.984;5.890;2022-09-20T17:09:33;23.10;41.40
66934;DHT22;53846;51.984;5.890;2022-09-20T17:12:03;22.90;41.70
66934;DHT22;53846;51.984;5.890;2022-09-20T17:14:37;22.90;42.30
66934;DHT22;53846;51.984;5.890;2022-09-20T17:17:06;22.50;42.50
66934;DHT22;53846;51.984;5.890;2022-09-20T17:19:35;22.30;42.90